Time;durP1;ratioP1;P1;durP2;ratioP2;P2;SDS_P1;SDS_P2;PMS_P1;PMS_P2;Temp;Humidity;BMP_temperature;BMP_pressure;BME280_temperature;BME280_humidity;BME280_pressure;Samples;Min_cycle;Max_cycle;Signal;HPM_P1;HPM_P2
2023/04/16 00:02:00;;;;;;;9.30;3.70;;;;;;;11.13;100.00;99962.16;4960250;29;20126;-77
2023/04/16 00:04:25;;;;;;;8.35;3.55;;;;;;;10.92;100.00;99962.00;4949196;29;20066;-78
2023/04/16 00:06:51;;;;;;;10.30;3.40;;;;;;;10.68;100.00;99957.69;4966206;29;20039;-78
2023/04/16 00:09:16;;;;;;;9.45;3.95;;;;;;;10.45;100.00;99957.69;4964284;29;20173;-78
2023/04/16 00:11:42;;;;;;;8.15;3.60;;;;;;;10.56;100.00;99957.28;4964594;29;20035;-78
2023/04/16 00:14:07;;;;;;;9.55;4.13;;;;;;;10.63;100.00;99954.75;4966254;29;20112;-79
2023/04/16 00:16:33;;;;;;;8.38;3.90;;;;;;;10.72;100.00;99959.00;4965071;28;20503;-80
2023/04/16 00:18:59;;;;;;;8.35;3.80;;;;;;;10.35;100.00;99962.38;4964464;29;20039;-80
2023/04/16 00:21:27;;;;;;;8.98;3.72;;;;;;;10.24;100.00;99958.28;4966012;29;20548;-81
2023/04/16 00:23:52;;;;;;;7.18;3.55;;;;;;;10.22;100.00;99959.47;4931882;29;20043;-79
2023/04/16 00:26:18;;;;;;;7.43;3.28;;;;;;;10.30;100.00;99959.44;4946608;29;20031;-79
2023/04/16 00:28:45;;;;;;;13.85;3.83;;;;;;;10.04;100.00;99953.59;4948250;29;20416;-79
2023/04/16 00:31:11;;;;;;;16.67;4.03;;;;;;;9.95;100.00;99965.19;4965622;29;20038;-78
2023/04/16 00:33:36;;;;;;;9.68;3.80;;;;;;;9.80;100.00;99957.97;4948624;29;20039;-79
2023/04/16 00:36:03;;;;;;;10.40;3.45;;;;;;;9.87;100.00;99958.13;4952209;29;20031;-81
2023/04/16 00:38:31;;;;;;;7.03;3.88;;;;;;;9.92;100.00;99965.53;4952716;29;20058;-79
2023/04/16 00:41:00;;;;;;;9.63;3.53;;;;;;;10.07;100.00;99959.38;4951152;29;20058;-79
2023/04/16 00:43:26;;;;;;;9.68;3.63;;;;;;;9.91;100.00;99959.41;4948165;29;20043;-80
2023/04/16 00:45:55;;;;;;;6.03;3.35;;;;;;;10.19;100.00;99962.47;4970818;29;20031;-79
2023/04/16 00:48:27;;;;;;;7.85;3.45;;;;;;;10.05;100.00;99960.50;4960213;29;20086;-82
2023/04/16 00:50:54;;;;;;;7.30;3.70;;;;;;;9.82;100.00;99963.91;4958442;29;20038;-89
2023/04/16 00:53:20;;;;;;;8.02;3.78;;;;;;;9.79;100.00;99958.13;4958309;29;20031;-80
2023/04/16 00:55:45;;;;;;;9.35;3.83;;;;;;;9.82;100.00;99966.56;4940682;29;20065;-83
2023/04/16 00:58:14;;;;;;;9.00;4.00;;;;;;;9.61;100.00;99963.63;4942056;29;20038;-82
2023/04/16 01:00:40;;;;;;;7.45;3.38;;;;;;;9.64;100.00;99951.91;4959345;29;20040;-83
2023/04/16 01:03:06;;;;;;;7.85;3.70;;;;;;;9.90;100.00;99956.94;4941026;29;20402;-84
2023/04/16 01:05:31;;;;;;;5.65;3.22;;;;;;;9.88;100.00;99953.66;4941769;29;20035;-80
2023/04/16 01:08:00;;;;;;;6.68;3.50;;;;;;;9.65;100.00;99954.38;4958647;29;20047;-85
2023/04/16 01:10:25;;;;;;;9.48;3.92;;;;;;;9.51;100.00;99947.13;4958351;29;20152;-83
2023/04/16 01:12:51;;;;;;;7.88;3.78;;;;;;;9.57;100.00;99946.47;4940238;29;20035;-86
2023/04/16 01:15:16;;;;;;;4.53;3.17;;;;;;;9.59;100.00;99948.94;4957747;29;20070;-89
2023/04/16 01:17:44;;;;;;;7.80;3.15;;;;;;;9.63;100.00;99948.44;4940512;29;20042;-82
2023/04/16 01:20:10;;;;;;;7.40;3.95;;;;;;;9.64;100.00;99942.16;4957839;29;20506;-81
2023/04/16 01:22:36;;;;;;;12.68;4.00;;;;;;;9.58;100.00;99931.44;4957990;29;20027;-87
2023/04/16 01:25:01;;;;;;;7.85;3.45;;;;;;;9.74;100.00;99932.19;4958135;29;20486;-81
2023/04/16 01:27:31;;;;;;;6.47;3.25;;;;;;;10.04;100.00;99932.41;4942530;29;20085;-85
2023/04/16 01:29:57;;;;;;;6.93;2.75;;;;;;;10.02;100.00;99937.84;4961120;29;20050;-86
2023/04/16 01:32:35;;;;;;;14.68;3.95;;;;;;;10.17;100.00;99943.28;4959063;29;20031;-77
2023/04/16 01:35:01;;;;;;;9.15;3.35;;;;;;;10.15;100.00;99935.50;4958127;29;20055;-78
2023/04/16 01:37:26;;;;;;;10.15;3.42;;;;;;;10.23;100.00;99932.00;4940812;29;20046;-79
2023/04/16 01:39:52;;;;;;;7.05;3.78;;;;;;;10.14;100.00;99938.34;4958285;29;20043;-79
2023/04/16 01:42:18;;;;;;;8.00;3.35;;;;;;;9.88;100.00;99943.06;4958413;29;20042;-78
2023/04/16 01:44:45;;;;;;;10.70;3.20;;;;;;;9.63;100.00;99931.72;4940641;29;20027;-81
2023/04/16 01:47:11;;;;;;;6.68;3.17;;;;;;;9.47;100.00;99923.84;4940453;29;20509;-79
2023/04/16 01:49:37;;;;;;;8.60;3.13;;;;;;;9.32;100.00;99929.00;4958161;29;20039;-78
2023/04/16 01:52:03;;;;;;;9.18;3.80;;;;;;;9.23;100.00;99927.38;4957777;29;20039;-78
2023/04/16 01:54:28;;;;;;;8.10;3.72;;;;;;;9.29;100.00;99929.34;4957813;29;20043;-79
2023/04/16 01:56:54;;;;;;;5.60;3.38;;;;;;;9.16;100.00;99931.66;4957454;29;20475;-78
2023/04/16 01:59:20;;;;;;;5.22;2.90;;;;;;;9.47;100.00;99929.97;4939709;29;20490;-79
2023/04/16 02:01:45;;;;;;;9.45;3.55;;;;;;;9.13;100.00;99921.44;4939986;29;20031;-78
2023/04/16 02:04:11;;;;;;;7.00;3.00;;;;;;;9.26;100.00;99921.75;4957152;29;20039;-78
2023/04/16 02:06:38;;;;;;;7.50;3.10;;;;;;;9.51;100.00;99925.97;4957613;29;20039;-81
2023/04/16 02:09:03;;;;;;;9.48;3.40;;;;;;;9.64;100.00;99931.56;4958223;29;20133;-85
2023/04/16 02:11:29;;;;;;;7.78;3.47;;;;;;;9.63;100.00;99937.03;4925647;29;20118;-80
2023/04/16 02:13:55;;;;;;;7.72;3.05;;;;;;;9.25;100.00;99942.06;4942096;29;20042;-84
2023/04/16 02:16:21;;;;;;;8.02;3.90;;;;;;;9.09;100.00;99931.50;4959086;29;20043;-83
2023/04/16 02:18:58;;;;;;;7.13;3.47;;;;;;;9.08;100.00;99929.84;4941076;29;20442;-84
2023/04/16 02:21:26;;;;;;;6.55;3.58;;;;;;;8.88;100.00;99933.03;4942024;29;20108;-86
2023/04/16 02:23:52;;;;;;;10.52;4.22;;;;;;;8.77;100.00;99928.91;4941503;29;20035;-81
2023/04/16 02:26:22;;;;;;;9.73;3.88;;;;;;;8.73;100.00;99931.03;4942328;29;20475;-82
2023/04/16 02:28:48;;;;;;;8.50;4.15;;;;;;;8.92;100.00;99927.22;4945708;29;20074;-79
2023/04/16 02:31:18;;;;;;;7.32;3.83;;;;;;;8.70;100.00;99931.38;4950317;29;20031;-80
2023/04/16 02:33:44;;;;;;;7.15;3.42;;;;;;;8.46;100.00;99933.16;4945400;29;20039;-78
2023/04/16 02:36:10;;;;;;;9.77;3.47;;;;;;;8.43;100.00;99934.31;4945910;29;20130;-78
2023/04/16 02:38:36;;;;;;;9.57;3.95;;;;;;;8.52;100.00;99941.25;4945788;29;20032;-86
2023/04/16 02:41:01;;;;;;;8.95;3.70;;;;;;;8.49;100.00;99933.66;4966565;29;20498;-81
2023/04/16 02:43:27;;;;;;;8.95;3.45;;;;;;;8.65;100.00;99933.66;4948177;29;20035;-87
2023/04/16 02:45:52;;;;;;;11.25;3.58;;;;;;;8.66;100.00;99939.78;4962489;29;20398;-82
2023/04/16 02:48:22;;;;;;;5.93;3.40;;;;;;;8.37;100.00;99944.69;4943712;29;20038;-83
2023/04/16 02:50:48;;;;;;;9.40;3.58;;;;;;;8.59;100.00;99949.34;4967698;29;20054;-79
2023/04/16 02:53:13;;;;;;;9.05;3.33;;;;;;;8.64;100.00;99947.88;4967513;29;20050;-80
2023/04/16 02:55:39;;;;;;;12.48;3.80;;;;;;;8.70;100.00;99947.22;4967900;29;20493;-80
2023/04/16 02:58:04;;;;;;;8.10;3.25;;;;;;;9.00;100.00;99940.44;4947315;29;20509;-80
2023/04/16 03:00:30;;;;;;;9.43;3.28;;;;;;;8.97;100.00;99942.59;4947678;29;20193;-78
2023/04/16 03:02:56;;;;;;;8.48;3.30;;;;;;;8.99;100.00;99940.59;4945343;29;20046;-79
2023/04/16 03:05:25;;;;;;;7.10;3.22;;;;;;;9.10;100.00;99942.91;4965068;29;20027;-83
2023/04/16 03:07:55;;;;;;;9.63;3.10;;;;;;;9.17;100.00;99949.19;4944245;29;20031;-80
2023/04/16 03:10:21;;;;;;;7.97;3.45;;;;;;;9.08;100.00;99950.19;4965772;29;20130;-84
2023/04/16 03:12:46;;;;;;;6.45;3.30;;;;;;;9.11;100.00;99944.56;4966559;29;20098;-83
2023/04/16 03:15:11;;;;;;;6.45;3.63;;;;;;;9.14;100.00;99945.06;4967942;29;20043;-80
2023/04/16 03:17:37;;;;;;;9.57;3.58;;;;;;;8.85;100.00;99933.38;4968633;29;20066;-81
2023/04/16 03:20:03;;;;;;;10.10;3.40;;;;;;;8.70;100.00;99946.38;4951130;29;20173;-81
2023/04/16 03:22:29;;;;;;;6.45;3.85;;;;;;;8.45;100.00;99937.59;4964889;29;20170;-82
2023/04/16 03:24:55;;;;;;;9.25;3.70;;;;;;;8.39;100.00;99948.81;4963935;29;20071;-85
2023/04/16 03:27:21;;;;;;;12.18;3.67;;;;;;;8.30;100.00;99947.16;4963051;29;20035;-88
2023/04/16 03:29:47;;;;;;;10.98;4.43;;;;;;;8.00;100.00;99945.03;4952145;29;20027;-83
2023/04/16 03:32:12;;;;;;;8.30;4.15;;;;;;;8.07;100.00;99946.88;4953049;29;20050;-79
2023/04/16 03:34:38;;;;;;;7.75;3.65;;;;;;;8.35;100.00;99947.50;4944600;29;20077;-91
2023/04/16 03:37:05;;;;;;;10.82;3.38;;;;;;;8.41;100.00;99957.41;4941321;29;20109;-82
2023/04/16 03:39:32;;;;;;;11.48;3.70;;;;;;;8.52;100.00;99958.91;4940704;29;20035;-83
2023/04/16 03:41:58;;;;;;;8.23;4.18;;;;;;;8.49;100.00;99960.06;4943212;29;20035;-86
2023/04/16 03:44:23;;;;;;;8.48;4.30;;;;;;;8.61;100.00;99961.41;4942090;29;20027;-90
2023/04/16 03:46:49;;;;;;;15.60;4.68;;;;;;;8.26;100.00;99970.38;4940166;29;20054;-83
2023/04/16 03:49:14;;;;;;;9.48;3.55;;;;;;;8.31;100.00;99977.84;4940513;29;20047;-87
2023/04/16 03:51:40;;;;;;;11.23;4.20;;;;;;;8.05;100.00;99972.63;4939521;29;20042;-79
2023/04/16 03:54:06;;;;;;;10.90;3.85;;;;;;;7.97;100.00;99983.13;4939592;29;20118;-85
2023/04/16 03:56:32;;;;;;;8.35;3.92;;;;;;;8.16;100.00;99985.50;4940385;29;20047;-84
2023/04/16 03:58:57;;;;;;;10.88;3.83;;;;;;;7.93;100.00;99987.06;4957645;29;20043;-88
2023/04/16 04:01:23;;;;;;;9.57;3.83;;;;;;;8.05;100.00;99982.34;4957313;29;20462;-90
2023/04/16 04:03:50;;;;;;;9.77;4.35;;;;;;;8.12;100.00;99988.66;4940371;29;20506;-87
2023/04/16 04:06:15;;;;;;;12.15;4.45;;;;;;;7.98;100.00;99991.88;4957706;29;20184;-88
2023/04/16 04:08:41;;;;;;;8.73;3.72;;;;;;;8.13;100.00;99992.91;4940173;29;20031;-86
2023/04/16 04:11:07;;;;;;;11.65;3.63;;;;;;;8.29;100.00;99996.47;4941349;29;20035;-81
2023/04/16 04:13:34;;;;;;;12.80;3.92;;;;;;;8.36;100.00;100007.22;4964067;29;20061;-78
2023/04/16 04:15:59;;;;;;;8.43;3.78;;;;;;;8.12;100.00;99999.22;4947096;29;20047;-80
2023/04/16 04:18:26;;;;;;;9.63;3.72;;;;;;;8.00;100.00;100001.28;4942779;29;20031;-82
2023/04/16 04:20:52;;;;;;;11.38;3.78;;;;;;;8.26;100.00;100009.13;4960146;29;20042;-82
2023/04/16 04:23:20;;;;;;;10.27;3.75;;;;;;;8.44;100.00;100012.53;4941987;29;20046;-79
2023/04/16 04:25:46;;;;;;;13.45;4.00;;;;;;;8.69;100.00;100011.59;4946033;29;20046;-81
2023/04/16 04:28:13;;;;;;;9.00;3.05;;;;;;;8.50;100.00;100018.97;4944622;29;20039;-78
2023/04/16 04:30:39;;;;;;;12.35;3.17;;;;;;;8.32;100.00;100019.09;4942470;29;20168;-88
2023/04/16 04:33:05;;;;;;;6.60;2.70;;;;;;;8.41;100.00;100023.44;4942157;29;20094;-83
2023/04/16 04:35:30;;;;;;;9.60;2.78;;;;;;;8.57;100.00;100028.75;4940705;29;20043;-83
2023/04/16 04:37:57;;;;;;;8.20;3.20;;;;;;;8.40;100.00;100027.03;4940563;29;20058;-77
2023/04/16 04:40:23;;;;;;;5.70;2.80;;;;;;;8.37;100.00;100037.94;4957184;29;20039;-83
2023/04/16 04:42:48;;;;;;;9.82;2.78;;;;;;;8.18;100.00;100019.69;4960224;29;20028;-87
2023/04/16 04:45:14;;;;;;;7.15;2.67;;;;;;;7.86;100.00;100030.88;4959636;29;20047;-84
2023/04/16 04:47:48;;;;;;;5.85;2.40;;;;;;;7.97;100.00;100043.00;4960282;29;20039;-85
2023/04/16 04:50:14;;;;;;;8.70;2.78;;;;;;;8.08;100.00;100040.09;4927258;29;20043;-80
2023/04/16 04:52:39;;;;;;;6.57;2.67;;;;;;;8.48;100.00;100042.09;4943012;29;20039;-87
2023/04/16 04:55:06;;;;;;;9.65;2.40;;;;;;;8.54;100.00;100047.56;4943354;29;20470;-88
2023/04/16 04:57:34;;;;;;;8.20;2.72;;;;;;;8.45;100.00;100050.34;4959785;29;20039;-84
2023/04/16 05:00:03;;;;;;;4.88;2.25;;;;;;;8.41;100.00;100052.47;4939895;29;20031;-81
2023/04/16 05:02:36;;;;;;;7.82;2.67;;;;;;;8.44;100.00;100059.25;4941465;29;20071;-79
2023/04/16 05:05:02;;;;;;;11.80;2.72;;;;;;;8.06;100.00;100063.16;4959457;29;20097;-90
2023/04/16 05:07:27;;;;;;;4.40;2.10;;;;;;;8.10;100.00;100064.50;4960100;29;20055;-81
2023/04/16 05:09:53;;;;;;;7.95;2.20;;;;;;;8.68;100.00;100067.25;4958800;29;20031;-78
2023/04/16 05:12:18;;;;;;;13.88;2.85;;;;;;;8.87;100.00;100066.13;4958983;29;20397;-78
2023/04/16 05:14:44;;;;;;;4.68;2.10;;;;;;;9.18;100.00;100075.13;4961017;29;20047;-79
2023/04/16 05:17:09;;;;;;;9.57;2.47;;;;;;;9.49;100.00;100062.88;4959518;29;20031;-78
2023/04/16 05:19:35;;;;;;;10.52;2.45;;;;;;;9.57;100.00;100072.63;4958938;29;20054;-80
2023/04/16 05:22:01;;;;;;;12.30;3.03;;;;;;;9.47;100.00;100077.25;4959752;29;20364;-79
2023/04/16 05:24:28;;;;;;;6.93;2.80;;;;;;;9.61;100.00;100085.34;4958493;29;20058;-81
2023/04/16 05:26:53;;;;;;;14.27;2.65;;;;;;;9.86;100.00;100092.28;4941518;29;20070;-79
2023/04/16 05:29:19;;;;;;;8.55;2.85;;;;;;;10.33;100.00;100092.34;4967204;29;20198;-80
2023/04/16 05:31:44;;;;;;;13.88;3.13;;;;;;;10.74;100.00;100095.63;4958247;29;20110;-80
2023/04/16 05:34:10;;;;;;;8.57;2.42;;;;;;;11.06;100.00;100099.13;4958436;29;20106;-78
2023/04/16 05:36:36;;;;;;;12.82;2.80;;;;;;;11.22;100.00;100097.19;4958762;29;20036;-80
2023/04/16 05:39:01;;;;;;;13.27;2.80;;;;;;;13.09;98.18;100104.84;4958496;29;20503;-78
2023/04/16 05:41:27;;;;;;;8.20;2.35;;;;;;;13.05;95.63;100108.06;4958029;29;20439;-78
2023/04/16 05:43:52;;;;;;;18.38;2.45;;;;;;;12.71;97.23;100109.50;4958352;29;20102;-79
2023/04/16 05:46:18;;;;;;;9.77;1.92;;;;;;;13.48;87.60;100117.75;4958708;29;20035;-79
2023/04/16 05:48:43;;;;;;;9.15;2.30;;;;;;;12.95;94.63;100122.50;4925645;29;20494;-79
2023/04/16 05:51:09;;;;;;;8.23;1.70;;;;;;;12.24;100.00;100117.88;4959012;29;20450;-81
2023/04/16 05:53:34;;;;;;;11.30;2.10;;;;;;;12.46;98.50;100121.47;4958321;29;20039;-80
2023/04/16 05:56:01;;;;;;;13.35;2.42;;;;;;;13.36;89.66;100129.91;4941154;29;20043;-80
2023/04/16 05:58:26;;;;;;;15.32;2.28;;;;;;;13.43;89.39;100130.81;4962003;29;20482;-82
2023/04/16 06:00:52;;;;;;;8.45;1.80;;;;;;;13.78;87.25;100134.41;4961072;29;20039;-82
2023/04/16 06:03:18;;;;;;;14.77;1.75;;;;;;;14.59;79.31;100133.75;4959558;29;20039;-80
2023/04/16 06:05:43;;;;;;;8.70;2.15;;;;;;;13.58;85.41;100141.41;4941863;29;20185;-80
2023/04/16 06:08:09;;;;;;;7.85;1.88;;;;;;;14.95;78.46;100145.00;4930602;29;20055;-87
2023/04/16 06:10:35;;;;;;;9.82;2.47;;;;;;;15.31;74.20;100135.91;4966589;29;20031;-84
2023/04/16 06:13:00;;;;;;;5.85;1.70;;;;;;;16.21;70.96;100140.69;4949784;28;20545;-88
2023/04/16 06:15:26;;;;;;;14.35;2.38;;;;;;;16.04;69.55;100130.41;4968996;29;20074;-84
2023/04/16 06:18:04;;;;;;;10.73;1.90;;;;;;;16.42;67.33;100130.56;4968204;29;20040;-82
2023/04/16 06:20:30;;;;;;;11.73;2.47;;;;;;;16.28;68.09;100134.28;4950353;29;20087;-83
2023/04/16 06:22:55;;;;;;;7.68;2.30;;;;;;;16.45;68.22;100132.00;4965507;29;20031;-89
2023/04/16 06:25:21;;;;;;;9.52;2.58;;;;;;;14.38;81.17;100125.88;4964666;29;20459;-82
2023/04/16 06:27:47;;;;;;;10.88;3.25;;;;;;;13.56;89.79;100144.22;4962860;29;20046;-81
2023/04/16 06:30:14;;;;;;;10.23;3.17;;;;;;;13.55;91.51;100126.63;4961394;29;20035;-85
2023/04/16 06:32:42;;;;;;;8.95;2.63;;;;;;;15.19;81.76;100134.81;4962602;29;20037;-80
2023/04/16 06:35:08;;;;;;;10.85;3.40;;;;;;;15.92;72.96;100132.06;4959465;29;20039;-84
2023/04/16 06:37:34;;;;;;;14.15;2.60;;;;;;;16.38;71.05;100141.88;4959973;29;20042;-83
2023/04/16 06:40:00;;;;;;;13.40;3.70;;;;;;;16.82;68.75;100144.69;4964511;29;20041;-80
2023/04/16 06:42:25;;;;;;;13.73;3.05;;;;;;;15.93;73.36;100144.41;4944926;29;20118;-79
2023/04/16 06:44:51;;;;;;;10.73;3.55;;;;;;;15.88;73.37;100141.53;4963578;29;20114;-79
2023/04/16 06:47:16;;;;;;;12.13;3.40;;;;;;;15.37;75.98;100138.56;4962294;29;20442;-85
2023/04/16 06:49:42;;;;;;;12.13;3.42;;;;;;;15.95;74.75;100137.00;4955139;29;20066;-85
2023/04/16 06:52:08;;;;;;;18.20;3.50;;;;;;;17.36;66.42;100151.44;4958709;29;20031;-84
2023/04/16 06:54:34;;;;;;;8.75;3.72;;;;;;;16.99;65.80;100151.22;4961689;29;20042;-79
2023/04/16 06:57:03;;;;;;;9.15;3.03;;;;;;;17.47;66.67;100161.44;4963915;29;20043;-81
2023/04/16 06:59:28;;;;;;;8.57;3.13;;;;;;;18.34;60.46;100165.97;4963644;29;20106;-81
2023/04/16 07:01:55;;;;;;;10.45;2.80;;;;;;;18.56;55.79;100169.91;4958883;29;20031;-80
2023/04/16 07:04:20;;;;;;;13.60;3.80;;;;;;;18.21;58.85;100166.09;4958582;29;20027;-86
2023/04/16 07:06:46;;;;;;;11.38;3.17;;;;;;;18.88;54.95;100174.09;4942753;29;20482;-81
2023/04/16 07:09:11;;;;;;;10.57;3.72;;;;;;;18.72;56.09;100158.59;4967920;29;20061;-84
2023/04/16 07:11:37;;;;;;;15.13;3.90;;;;;;;18.08;57.31;100173.22;4941645;29;20039;-82
2023/04/16 07:14:02;;;;;;;12.70;3.90;;;;;;;17.79;57.45;100168.50;4960757;29;20065;-83
2023/04/16 07:16:28;;;;;;;10.27;3.38;;;;;;;15.85;71.53;100152.63;4959650;29;20046;-84
2023/04/16 07:18:54;;;;;;;9.20;4.18;;;;;;;15.46;70.17;100156.06;4959357;29;20118;-80
2023/04/16 07:21:19;;;;;;;13.10;3.63;;;;;;;17.08;63.80;100156.31;4961362;29;20103;-83
2023/04/16 07:23:45;;;;;;;15.02;4.25;;;;;;;17.04;63.31;100163.94;4961965;29;20130;-81
2023/04/16 07:26:10;;;;;;;13.63;3.55;;;;;;;16.97;62.65;100158.63;4962118;28;20035;-81
2023/04/16 07:28:42;;;;;;;9.98;3.83;;;;;;;17.63;61.30;100163.69;4964746;29;20042;-86
2023/04/16 07:31:08;;;;;;;10.23;3.33;;;;;;;19.02;56.57;100164.03;4966148;29;20055;-82
2023/04/16 07:33:34;;;;;;;11.60;3.30;;;;;;;20.00;51.73;100161.78;4972456;29;20045;-85
2023/04/16 07:35:59;;;;;;;8.57;2.83;;;;;;;21.54;48.66;100169.19;4973802;29;20066;-81
2023/04/16 07:38:31;;;;;;;12.50;3.03;;;;;;;21.23;45.63;100166.97;4973399;29;20035;-81
2023/04/16 07:40:59;;;;;;;10.70;3.33;;;;;;;20.46;47.98;100161.03;4967064;29;20055;-80
2023/04/16 07:43:25;;;;;;;8.27;3.08;;;;;;;21.74;45.37;100179.53;4961495;29;20295;-83
2023/04/16 07:45:56;;;;;;;10.52;3.47;;;;;;;21.07;47.68;100174.75;4963477;29;20039;-84
2023/04/16 07:48:22;;;;;;;10.40;2.92;;;;;;;19.60;50.80;100172.34;4964386;29;20043;-87
2023/04/16 07:50:49;;;;;;;10.32;2.92;;;;;;;19.28;52.68;100168.22;4980383;23;20058;-86
2023/04/16 07:53:14;;;;;;;13.68;3.70;;;;;;;17.87;59.45;100176.25;4969855;28;20062;-81
2023/04/16 07:55:40;;;;;;;10.45;3.38;;;;;;;17.89;61.40;100168.84;4985145;28;20029;-80
2023/04/16 07:58:08;;;;;;;10.60;3.78;;;;;;;18.81;57.59;100173.34;4982060;28;20818;-83
2023/04/16 08:00:34;;;;;;;10.98;3.85;;;;;;;18.71;57.54;100183.78;4979810;28;20042;-84
2023/04/16 08:03:00;;;;;;;10.85;3.30;;;;;;;19.79;54.88;100178.47;4977830;28;20035;-82
2023/04/16 08:05:25;;;;;;;14.18;3.60;;;;;;;19.10;56.18;100188.69;4979257;28;20375;-83
2023/04/16 08:07:51;;;;;;;11.57;3.45;;;;;;;18.81;58.33;100189.47;4981588;28;20039;-90
2023/04/16 08:10:16;;;;;;;13.68;3.45;;;;;;;20.86;51.00;100202.31;4979958;28;20126;-87
2023/04/16 08:12:42;;;;;;;13.18;3.65;;;;;;;20.11;52.07;100202.19;4977594;28;20034;-83
2023/04/16 08:15:07;;;;;;;9.23;3.30;;;;;;;20.62;50.13;100200.69;4977437;28;20053;-83
2023/04/16 08:17:33;;;;;;;13.63;3.53;;;;;;;20.57;51.12;100205.97;4978244;28;20123;-87
2023/04/16 08:19:59;;;;;;;12.23;3.60;;;;;;;20.01;52.64;100204.63;4978374;28;20037;-82
2023/04/16 08:22:25;;;;;;;14.65;4.10;;;;;;;19.53;55.00;100203.88;4979268;28;20406;-84
2023/04/16 08:24:51;;;;;;;11.93;3.58;;;;;;;20.28;52.05;100212.28;4980492;28;20106;-84
2023/04/16 08:27:17;;;;;;;11.05;3.00;;;;;;;21.06;50.02;100210.00;4978255;28;20034;-86
2023/04/16 08:29:42;;;;;;;8.40;3.00;;;;;;;21.25;47.93;100214.19;4982715;28;20058;-82
2023/04/16 08:32:09;;;;;;;10.82;3.08;;;;;;;20.65;48.65;100213.69;4980573;28;20470;-82
2023/04/16 08:34:35;;;;;;;15.65;3.53;;;;;;;18.94;55.66;100210.78;4963019;28;20482;-79
2023/04/16 08:37:01;;;;;;;13.43;3.13;;;;;;;19.30;55.24;100206.44;4978136;28;20035;-87
2023/04/16 08:39:27;;;;;;;11.90;2.70;;;;;;;20.06;52.17;100223.56;4978399;28;20043;-80
2023/04/16 08:41:54;;;;;;;10.68;2.90;;;;;;;20.40;50.73;100226.56;4980469;28;20042;-82
2023/04/16 08:44:26;;;;;;;14.50;3.28;;;;;;;20.12;51.86;100219.94;4978594;28;20038;-81
2023/04/16 08:46:57;;;;;;;8.65;2.63;;;;;;;20.04;52.34;100212.22;4980669;28;20102;-81
2023/04/16 08:49:27;;;;;;;9.18;2.60;;;;;;;20.76;49.92;100220.94;4981517;28;20063;-81
2023/04/16 08:51:56;;;;;;;7.60;2.40;;;;;;;21.46;46.68;100220.81;4986089;28;20039;-87
2023/04/16 08:54:31;;;;;;;9.93;2.72;;;;;;;22.19;44.85;100228.09;4960279;28;20110;-82
2023/04/16 08:56:57;;;;;;;11.27;2.45;;;;;;;20.89;46.05;100228.78;4978340;28;20073;-79
2023/04/16 08:59:24;;;;;;;13.50;2.65;;;;;;;20.88;47.18;100231.72;4995617;28;20033;-80
2023/04/16 09:01:51;;;;;;;8.80;2.47;;;;;;;21.16;47.91;100230.97;4995960;28;20086;-81
2023/04/16 09:04:19;;;;;;;8.27;2.20;;;;;;;21.94;43.30;100237.38;4996547;28;20450;-79
2023/04/16 09:06:46;;;;;;;11.43;1.70;;;;;;;22.41;42.20;100234.38;4995638;28;20034;-80
2023/04/16 09:09:11;;;;;;;11.70;2.55;;;;;;;21.79;44.49;100244.34;4995711;28;20015;-80
2023/04/16 09:11:38;;;;;;;10.00;2.28;;;;;;;21.75;44.31;100243.19;4994984;28;20011;-81
2023/04/16 09:14:09;;;;;;;10.23;2.25;;;;;;;21.80;44.96;100241.44;4978310;28;20035;-78
2023/04/16 09:16:35;;;;;;;10.07;2.22;;;;;;;21.05;46.10;100236.13;4996279;28;20042;-80
2023/04/16 09:19:01;;;;;;;9.75;2.67;;;;;;;20.01;48.79;100239.59;4996119;28;20011;-79
2023/04/16 09:21:26;;;;;;;12.30;2.13;;;;;;;20.35;49.64;100232.63;4995081;28;20050;-82
2023/04/16 09:23:52;;;;;;;8.57;2.75;;;;;;;20.48;48.43;100237.00;4993342;28;20031;-80
2023/04/16 09:26:19;;;;;;;11.10;2.67;;;;;;;21.25;44.16;100245.72;4960359;28;20019;-80
2023/04/16 09:28:47;;;;;;;7.53;2.63;;;;;;;21.84;42.96;100247.97;4993359;28;20102;-82
2023/04/16 09:31:12;;;;;;;7.97;2.70;;;;;;;21.28;45.00;100239.88;4995001;28;20031;-79
2023/04/16 09:33:38;;;;;;;6.07;2.58;;;;;;;21.39;43.05;100247.09;4994997;28;20027;-79
2023/04/16 09:36:06;;;;;;;15.38;2.67;;;;;;;21.37;44.49;100238.44;4995356;28;20042;-82
2023/04/16 09:38:48;;;;;;;12.32;2.80;;;;;;;21.02;45.27;100250.06;4995104;28;20055;-83
2023/04/16 09:41:15;;;;;;;11.00;2.88;;;;;;;21.39;44.15;100239.81;4994138;28;20093;-82
2023/04/16 09:44:08;;;;;;;10.27;3.50;;;;;;;21.00;44.75;100238.72;4978101;28;20094;-83
2023/04/16 09:46:41;;;;;;;8.43;2.60;;;;;;;21.24;44.19;100244.94;4994522;28;20150;-80
2023/04/16 09:49:20;;;;;;;8.55;3.20;;;;;;;21.44;44.31;100241.81;4994379;28;20049;-82
2023/04/16 09:51:51;;;;;;;7.85;2.75;;;;;;;21.33;43.94;100243.47;4996696;28;20039;-83
2023/04/16 09:54:18;;;;;;;6.30;2.45;;;;;;;20.85;43.78;100249.16;4996740;28;20041;-83
2023/04/16 09:56:45;;;;;;;8.82;2.55;;;;;;;21.36;43.28;100250.28;4995246;28;20018;-80
2023/04/16 09:59:21;;;;;;;6.32;2.70;;;;;;;21.03;44.65;100249.03;4997742;28;20039;-82
2023/04/16 10:01:52;;;;;;;11.02;3.90;;;;;;;21.54;43.98;100247.41;4997401;28;20031;-82
2023/04/16 10:04:18;;;;;;;13.35;6.53;;;;;;;21.88;42.38;100254.50;4997598;28;20078;-81
2023/04/16 10:07:03;;;;;;;12.57;5.55;;;;;;;21.52;43.69;100236.03;4997137;28;20062;-83
2023/04/16 10:09:36;;;;;;;14.30;5.45;;;;;;;22.11;42.57;100246.31;4996039;28;20038;-84
2023/04/16 10:12:01;;;;;;;16.83;4.07;;;;;;;21.82;43.24;100233.06;4995997;28;20057;-82
2023/04/16 10:14:27;;;;;;;8.07;3.40;;;;;;;21.37;43.03;100241.97;4997667;28;20050;-82
2023/04/16 10:16:56;;;;;;;10.85;3.63;;;;;;;20.34;44.89;100230.19;4996049;28;20039;-83
2023/04/16 10:19:24;;;;;;;11.35;3.83;;;;;;;20.72;46.48;100229.72;4973508;28;20054;-82
2023/04/16 10:21:49;;;;;;;13.25;3.33;;;;;;;20.81;46.27;100223.75;4985199;28;20050;-82
2023/04/16 10:24:16;;;;;;;11.48;3.10;;;;;;;21.79;43.57;100228.16;4996072;28;20035;-79
2023/04/16 10:26:42;;;;;;;9.85;3.72;;;;;;;22.52;41.13;100236.19;4996888;28;20055;-81
2023/04/16 10:29:10;;;;;;;11.18;3.47;;;;;;;22.22;41.17;100235.69;4989435;28;20034;-84
2023/04/16 10:31:37;;;;;;;8.48;2.70;;;;;;;21.90;42.65;100233.56;4984551;28;20087;-85
2023/04/16 10:34:04;;;;;;;6.97;3.20;;;;;;;22.04;41.83;100229.47;4994340;28;20042;-85
2023/04/16 10:36:30;;;;;;;6.93;2.70;;;;;;;22.14;41.66;100220.72;4992785;28;20042;-83
2023/04/16 10:38:58;;;;;;;8.63;3.15;;;;;;;22.48;42.58;100222.34;4995529;28;20042;-82
2023/04/16 10:41:25;;;;;;;11.68;6.07;;;;;;;22.39;41.16;100231.13;4992662;28;20038;-83
2023/04/16 10:43:52;;;;;;;9.43;2.35;;;;;;;22.05;39.76;100230.28;4991657;28;20031;-82
2023/04/16 10:46:17;;;;;;;6.03;2.40;;;;;;;22.14;40.61;100223.41;4973858;28;20035;-81
2023/04/16 10:48:43;;;;;;;8.57;2.83;;;;;;;22.14;39.07;100226.09;4996307;28;20041;-87
2023/04/16 10:51:23;;;;;;;6.30;2.67;;;;;;;22.57;38.46;100218.16;4997584;28;20043;-81
2023/04/16 10:53:49;;;;;;;11.23;2.42;;;;;;;23.12;37.29;100210.03;4979155;28;20078;-81
2023/04/16 10:56:22;;;;;;;8.68;2.90;;;;;;;23.90;35.85;100205.19;4975799;28;20040;-81
2023/04/16 10:58:47;;;;;;;12.88;2.53;;;;;;;23.55;36.25;100203.81;4976261;28;20047;-81
2023/04/16 11:01:13;;;;;;;7.32;2.30;;;;;;;23.65;35.97;100219.31;4977373;28;20063;-80
2023/04/16 11:03:43;;;;;;;7.47;2.25;;;;;;;22.84;36.89;100212.91;4976654;29;20047;-82
2023/04/16 11:06:22;;;;;;;7.50;1.92;;;;;;;23.49;36.32;100209.41;4976459;29;20033;-83
2023/04/16 11:08:50;;;;;;;9.27;2.03;;;;;;;24.13;36.65;100199.47;4977517;29;20023;-83
2023/04/16 11:11:17;;;;;;;5.80;2.22;;;;;;;23.90;35.51;100200.59;4966738;29;20063;-84
2023/04/16 11:13:44;;;;;;;8.98;2.75;;;;;;;22.56;37.28;100204.91;4958372;29;20038;-84
2023/04/16 11:16:14;;;;;;;6.03;1.67;;;;;;;22.42;35.90;100214.41;4966170;29;20043;-81
2023/04/16 11:18:40;;;;;;;3.40;1.17;;;;;;;22.73;34.34;100199.50;4977008;29;20035;-81
2023/04/16 11:21:11;;;;;;;5.35;1.23;;;;;;;23.15;34.59;100193.31;4975261;29;20046;-80
2023/04/16 11:23:50;;;;;;;5.45;1.60;;;;;;;23.48;35.53;100195.06;4991722;28;20043;-82